Time;durP1;ratioP1;P1;durP2;ratioP2;P2;SDS_P1;SDS_P2;PMS_P1;PMS_P2;Temp;Humidity;BMP_temperature;BMP_pressure;BME280_temperature;BME280_humidity;BME280_pressure;Samples;Min_cycle;Max_cycle;Signal;HPM_P1;HPM_P2
2022/10/22 00:00:07;;;;;;;12.65;6.47;;;15.50;99.90;;;;;;4954620;28;20114;-73
2022/10/22 00:02:33;;;;;;;14.80;6.32;;;15.50;99.90;;;;;;4947852;28;20027;-73
2022/10/22 00:04:59;;;;;;;8.23;5.97;;;15.50;99.90;;;;;;4951998;28;20035;-71
2022/10/22 00:07:24;;;;;;;9.38;6.15;;;15.50;99.90;;;;;;4958513;28;20045;-72
2022/10/22 00:09:52;;;;;;;11.57;6.22;;;15.50;99.90;;;;;;4956028;28;20098;-72
2022/10/22 00:12:21;;;;;;;12.82;5.50;;;15.60;99.90;;;;;;4951689;28;20023;-72
2022/10/22 00:14:49;;;;;;;12.05;6.40;;;15.50;99.90;;;;;;4953780;28;20102;-71
2022/10/22 00:17:16;;;;;;;13.43;6.63;;;15.60;99.90;;;;;;4959270;28;20038;-70
2022/10/22 00:19:42;;;;;;;13.95;6.50;;;15.60;99.90;;;;;;4956421;28;20426;-72
2022/10/22 00:22:08;;;;;;;14.15;5.93;;;15.60;99.90;;;;;;4947728;28;20095;-72
2022/10/22 00:24:35;;;;;;;10.77;6.18;;;15.50;99.90;;;;;;4946291;28;20019;-70
2022/10/22 00:27:02;;;;;;;12.73;6.20;;;15.50;99.90;;;;;;4945161;28;20087;-71
2022/10/22 00:29:27;;;;;;;13.52;6.63;;;15.60;99.90;;;;;;4950354;28;20463;-68
2022/10/22 00:31:53;;;;;;;16.50;5.95;;;15.60;99.90;;;;;;4955161;28;20027;-73
2022/10/22 00:34:21;;;;;;;13.38;5.53;;;15.50;99.90;;;;;;4958303;28;20054;-73
2022/10/22 00:36:48;;;;;;;10.38;5.90;;;15.50;99.90;;;;;;4959224;28;20090;-72
2022/10/22 00:39:15;;;;;;;15.70;5.55;;;15.50;99.90;;;;;;4955879;28;20031;-73
2022/10/22 00:41:45;;;;;;;12.13;5.68;;;15.60;99.90;;;;;;4960394;28;20027;-72
2022/10/22 00:44:48;;;;;;;10.35;5.70;;;15.60;99.90;;;;;;4957170;28;20121;-71
2022/10/22 00:47:18;;;;;;;12.02;5.88;;;15.50;99.90;;;;;;4953372;28;20093;-72
2022/10/22 00:49:45;;;;;;;9.32;5.47;;;15.50;99.90;;;;;;4950031;28;20100;-72
2022/10/22 00:52:13;;;;;;;19.33;6.55;;;15.60;99.90;;;;;;4944580;28;20024;-71
2022/10/22 00:54:41;;;;;;;23.52;6.10;;;15.60;99.90;;;;;;4949038;28;20135;-72
2022/10/22 00:57:09;;;;;;;10.25;5.60;;;15.60;99.90;;;;;;4954435;28;20019;-73
2022/10/22 00:59:37;;;;;;;21.02;7.15;;;15.50;99.90;;;;;;4975992;28;20023;-73
2022/10/22 01:02:03;;;;;;;9.32;5.22;;;15.50;99.90;;;;;;4953989;28;20034;-72
2022/10/22 01:04:28;;;;;;;18.30;5.55;;;15.60;99.90;;;;;;4956914;28;20121;-72
2022/10/22 01:06:54;;;;;;;11.25;5.10;;;15.60;99.90;;;;;;4962854;28;20886;-73
2022/10/22 01:09:33;;;;;;;8.50;5.07;;;15.60;99.90;;;;;;4959015;28;20482;-72
2022/10/22 01:12:17;;;;;;;11.65;5.30;;;15.60;99.90;;;;;;4956912;28;20099;-73
2022/10/22 01:15:24;;;;;;;15.30;5.90;;;15.60;99.90;;;;;;4960709;28;20031;-73
2022/10/22 01:18:23;;;;;;;8.93;5.05;;;15.60;99.90;;;;;;4948381;28;20034;-73
2022/10/22 01:21:10;;;;;;;13.65;5.70;;;15.60;99.90;;;;;;4948948;28;20038;-74
2022/10/22 01:24:06;;;;;;;12.43;5.45;;;15.60;99.90;;;;;;4957771;28;20047;-71
2022/10/22 01:26:57;;;;;;;14.98;5.15;;;15.50;99.90;;;;;;4960593;28;20083;-73
2022/10/22 01:29:35;;;;;;;9.90;5.25;;;15.50;99.90;;;;;;4956797;28;20030;-73
2022/10/22 01:32:07;;;;;;;11.38;5.82;;;15.50;99.90;;;;;;4957286;28;20035;-72
2022/10/22 01:34:39;;;;;;;15.63;5.38;;;15.50;99.90;;;;;;4951382;28;20713;-73
2022/10/22 01:37:05;;;;;;;15.93;5.47;;;15.50;99.90;;;;;;4948666;28;20047;-73
2022/10/22 01:39:33;;;;;;;14.75;5.85;;;15.50;99.90;;;;;;4956542;28;20042;-73
2022/10/22 01:41:59;;;;;;;14.32;5.65;;;15.50;99.90;;;;;;4949888;28;20134;-73
2022/10/22 01:44:29;;;;;;;11.27;5.68;;;15.50;99.90;;;;;;4946628;28;20040;-73
2022/10/22 01:47:31;;;;;;;19.15;6.90;;;15.50;99.90;;;;;;4952234;28;20509;-73
2022/10/22 01:50:18;;;;;;;10.40;6.22;;;15.50;99.90;;;;;;4955059;28;20043;-73
2022/10/22 01:52:53;;;;;;;16.33;6.13;;;15.60;99.90;;;;;;4952363;28;20368;-75
2022/10/22 01:55:33;;;;;;;9.63;5.72;;;15.50;99.90;;;;;;4955523;28;20034;-73
2022/10/22 01:58:06;;;;;;;10.25;5.72;;;15.60;99.90;;;;;;4973465;28;20030;-72
2022/10/22 02:00:37;;;;;;;12.57;5.75;;;15.60;99.90;;;;;;4952099;28;20020;-73
2022/10/22 02:03:20;;;;;;;20.40;6.68;;;15.60;99.90;;;;;;4959002;28;20030;-74
2022/10/22 02:05:54;;;;;;;17.65;6.00;;;15.60;99.90;;;;;;4951378;28;20410;-73
2022/10/22 02:08:24;;;;;;;20.77;6.47;;;15.60;99.90;;;;;;4948246;28;20043;-73
2022/10/22 02:10:51;;;;;;;13.43;5.85;;;15.60;99.90;;;;;;4949401;28;20102;-73
2022/10/22 02:13:49;;;;;;;18.55;6.78;;;15.50;99.90;;;;;;4953182;28;20456;-73
2022/10/22 02:16:25;;;;;;;17.02;5.60;;;15.50;99.90;;;;;;4945419;28;20361;-73
2022/10/22 02:18:54;;;;;;;21.13;6.53;;;15.50;99.90;;;;;;4959906;28;20031;-74
2022/10/22 02:21:22;;;;;;;20.63;6.18;;;15.50;99.90;;;;;;4959410;28;20607;-72
2022/10/22 02:23:48;;;;;;;16.08;6.38;;;15.50;99.90;;;;;;4954578;28;20031;-72
2022/10/22 02:26:38;;;;;;;19.15;6.78;;;15.50;99.90;;;;;;4950730;28;20326;-72
2022/10/22 02:29:14;;;;;;;19.75;6.88;;;15.50;99.90;;;;;;4959678;28;20110;-72
2022/10/22 02:31:44;;;;;;;18.58;6.63;;;15.50;99.90;;;;;;4952220;28;20031;-73
2022/10/22 02:34:15;;;;;;;11.02;6.28;;;15.50;99.90;;;;;;4958025;28;20735;-73
2022/10/22 02:36:42;;;;;;;16.45;5.43;;;15.50;99.90;;;;;;4953770;28;20028;-73
2022/10/22 02:39:09;;;;;;;18.80;5.95;;;15.50;99.90;;;;;;4961001;28;20408;-73
2022/10/22 02:41:38;;;;;;;14.57;5.75;;;15.50;99.90;;;;;;4957091;28;20449;-72
2022/10/22 02:44:10;;;;;;;14.00;5.70;;;15.50;99.90;;;;;;4960674;28;20035;-73
2022/10/22 02:46:37;;;;;;;17.02;6.30;;;15.50;99.90;;;;;;4956897;28;22089;-75
2022/10/22 02:49:03;;;;;;;13.05;5.72;;;15.50;99.90;;;;;;4955269;28;20035;-73
2022/10/22 02:51:29;;;;;;;13.73;6.05;;;15.50;99.90;;;;;;4956497;28;20035;-74
2022/10/22 02:53:57;;;;;;;11.23;5.63;;;15.40;99.90;;;;;;4944010;28;20031;-73
2022/10/22 02:56:22;;;;;;;15.00;6.30;;;15.40;99.90;;;;;;4952326;28;20038;-73
2022/10/22 02:58:48;;;;;;;14.68;6.13;;;15.40;99.90;;;;;;4954166;28;20027;-73
2022/10/22 03:01:14;;;;;;;13.27;6.18;;;15.40;99.90;;;;;;4970944;28;20691;-73
2022/10/22 03:03:39;;;;;;;20.00;6.38;;;15.40;99.90;;;;;;4951060;28;20077;-75
2022/10/22 03:06:05;;;;;;;18.70;6.43;;;15.50;99.90;;;;;;4964179;28;20452;-76
2022/10/22 03:08:33;;;;;;;16.77;6.53;;;15.40;99.90;;;;;;4956677;28;20453;-76
2022/10/22 03:10:59;;;;;;;16.73;5.93;;;15.40;99.90;;;;;;4964916;28;20126;-76
2022/10/22 03:13:26;;;;;;;13.60;6.07;;;15.40;99.90;;;;;;4964589;28;20115;-73
2022/10/22 03:15:52;;;;;;;17.23;6.07;;;15.40;99.90;;;;;;4952480;28;20081;-72
2022/10/22 03:18:18;;;;;;;18.17;6.00;;;15.40;99.90;;;;;;4951076;28;20099;-75
2022/10/22 03:20:43;;;;;;;16.02;6.35;;;15.40;99.90;;;;;;4952091;28;20116;-73
2022/10/22 03:23:11;;;;;;;12.23;6.32;;;15.40;99.90;;;;;;4954994;28;20499;-75
2022/10/22 03:25:40;;;;;;;12.63;6.05;;;15.40;99.90;;;;;;4952336;28;20026;-76
2022/10/22 03:28:08;;;;;;;17.52;6.90;;;15.30;99.90;;;;;;4957999;28;20617;-72
2022/10/22 03:30:33;;;;;;;15.70;6.15;;;15.30;99.90;;;;;;4958635;28;20030;-73
2022/10/22 03:32:59;;;;;;;21.58;6.53;;;15.40;99.90;;;;;;4953361;28;20361;-73
2022/10/22 03:35:25;;;;;;;12.50;5.68;;;15.30;99.90;;;;;;4959513;28;20432;-73
2022/10/22 03:37:51;;;;;;;13.65;6.43;;;15.30;99.90;;;;;;4951989;28;20023;-73
2022/10/22 03:40:19;;;;;;;18.45;6.28;;;15.30;99.90;;;;;;4953900;28;20027;-72
2022/10/22 03:42:45;;;;;;;11.05;5.93;;;15.30;99.90;;;;;;4948912;28;20110;-73
2022/10/22 03:45:10;;;;;;;14.93;6.93;;;15.20;99.90;;;;;;4952045;28;20098;-72
2022/10/22 03:47:39;;;;;;;23.02;6.32;;;15.20;99.90;;;;;;4947869;28;20046;-73
2022/10/22 03:50:05;;;;;;;17.25;6.40;;;15.20;99.90;;;;;;4953594;28;20032;-73
2022/10/22 03:52:38;;;;;;;13.60;5.88;;;15.20;99.90;;;;;;4951729;28;20027;-72
2022/10/22 03:55:05;;;;;;;22.40;7.03;;;15.20;99.90;;;;;;4952676;28;20165;-71
2022/10/22 03:57:30;;;;;;;9.73;6.00;;;15.10;99.90;;;;;;4965684;28;20019;-74
2022/10/22 03:59:56;;;;;;;12.05;6.28;;;15.10;99.90;;;;;;4951745;28;20037;-73
2022/10/22 04:02:23;;;;;;;13.50;5.85;;;15.20;99.90;;;;;;4957242;28;20388;-73
2022/10/22 04:04:49;;;;;;;12.55;6.10;;;15.20;99.90;;;;;;4955129;28;20027;-72
2022/10/22 04:07:17;;;;;;;17.65;6.03;;;15.20;99.90;;;;;;4949557;28;20031;-73
2022/10/22 04:09:43;;;;;;;10.90;5.15;;;15.20;99.90;;;;;;4953674;28;20027;-73
2022/10/22 04:12:10;;;;;;;9.77;6.10;;;15.20;99.90;;;;;;4946479;28;20035;-73
2022/10/22 04:14:38;;;;;;;10.95;6.05;;;15.20;99.90;;;;;;4956586;28;20037;-73
2022/10/22 04:17:04;;;;;;;24.38;6.65;;;15.20;99.90;;;;;;4954529;28;20051;-73
2022/10/22 04:19:29;;;;;;;15.82;5.90;;;15.20;99.90;;;;;;4963003;28;20066;-73
2022/10/22 04:21:58;;;;;;;11.60;6.00;;;15.30;99.90;;;;;;4963248;28;20062;-73
2022/10/22 04:24:24;;;;;;;12.30;6.30;;;15.20;99.90;;;;;;4964042;28;20114;-77
2022/10/22 04:26:49;;;;;;;13.90;6.40;;;15.20;99.90;;;;;;4952845;28;20113;-76
2022/10/22 04:29:15;;;;;;;14.13;6.32;;;15.20;99.90;;;;;;4954112;28;20425;-75
2022/10/22 04:31:40;;;;;;;13.35;6.00;;;15.20;99.90;;;;;;4952848;28;20027;-75
2022/10/22 04:34:06;;;;;;;11.52;5.80;;;15.10;99.90;;;;;;4952804;28;20028;-75
2022/10/22 04:36:35;;;;;;;15.32;6.57;;;15.10;99.90;;;;;;4952716;28;20350;-73
2022/10/22 04:39:03;;;;;;;14.43;6.38;;;15.10;99.90;;;;;;4956148;28;20094;-73
2022/10/22 04:41:37;;;;;;;10.48;6.07;;;15.10;99.90;;;;;;4947219;28;20030;-73
2022/10/22 04:44:03;;;;;;;11.88;6.75;;;15.10;99.90;;;;;;4956423;28;20035;-73
2022/10/22 04:46:33;;;;;;;13.13;6.80;;;15.10;99.90;;;;;;4953165;28;20049;-73
2022/10/22 04:48:59;;;;;;;15.15;7.30;;;15.10;99.90;;;;;;4955375;28;20039;-73
2022/10/22 04:51:26;;;;;;;15.90;6.22;;;15.10;99.90;;;;;;4960974;28;20031;-73
2022/10/22 04:53:54;;;;;;;16.05;6.15;;;15.10;99.90;;;;;;4959166;28;20019;-72
2022/10/22 04:56:24;;;;;;;12.18;5.90;;;15.10;99.90;;;;;;4955035;28;20078;-73
2022/10/22 04:58:58;;;;;;;12.85;6.43;;;15.00;99.90;;;;;;4954346;28;20019;-71
2022/10/22 05:01:43;;;;;;;12.55;6.05;;;15.10;99.90;;;;;;4953455;28;20094;-72
2022/10/22 05:04:14;;;;;;;14.65;7.05;;;15.10;99.90;;;;;;4951799;28;20031;-72
2022/10/22 05:06:40;;;;;;;15.65;5.93;;;15.00;99.90;;;;;;4952511;28;20031;-71
2022/10/22 05:09:10;;;;;;;13.75;6.43;;;15.00;99.90;;;;;;4959266;28;20029;-72
2022/10/22 05:11:37;;;;;;;10.73;5.70;;;15.00;99.90;;;;;;4957804;28;20050;-71
2022/10/22 05:14:05;;;;;;;14.55;6.05;;;15.10;99.90;;;;;;4950126;28;20022;-73
2022/10/22 05:16:33;;;;;;;19.30;6.03;;;15.00;99.90;;;;;;4957716;28;20452;-73
2022/10/22 05:19:00;;;;;;;18.13;6.57;;;15.00;99.90;;;;;;4959201;28;20035;-73
2022/10/22 05:21:29;;;;;;;9.82;5.80;;;15.10;99.90;;;;;;4951654;28;20058;-72
2022/10/22 05:23:56;;;;;;;12.85;6.28;;;15.00;99.90;;;;;;4953281;28;20039;-73
2022/10/22 05:26:26;;;;;;;13.65;5.70;;;15.00;99.90;;;;;;4956715;28;20531;-73
2022/10/22 05:28:52;;;;;;;13.40;5.50;;;15.00;99.90;;;;;;4957986;28;20030;-72
2022/10/22 05:31:18;;;;;;;11.90;5.78;;;15.00;99.90;;;;;;4967908;28;20062;-73
2022/10/22 05:33:46;;;;;;;12.57;5.70;;;15.00;99.90;;;;;;4952982;28;20067;-73
2022/10/22 05:36:15;;;;;;;21.55;7.82;;;15.00;99.90;;;;;;4960496;28;20031;-71
2022/10/22 05:38:41;;;;;;;16.52;6.00;;;15.00;99.90;;;;;;4952221;28;20029;-72
2022/10/22 05:41:09;;;;;;;12.38;5.97;;;15.00;99.90;;;;;;4956942;28;20028;-73
2022/10/22 05:43:35;;;;;;;13.50;6.15;;;15.00;99.90;;;;;;4956974;28;20110;-73
2022/10/22 05:46:07;;;;;;;8.75;5.43;;;15.10;99.90;;;;;;4964516;28;20031;-72
2022/10/22 05:48:33;;;;;;;9.60;5.45;;;15.00;99.90;;;;;;4953623;28;20026;-72
2022/10/22 05:51:04;;;;;;;13.98;5.63;;;15.00;99.90;;;;;;4954225;28;20098;-72
2022/10/22 05:53:34;;;;;;;13.35;5.50;;;15.00;99.90;;;;;;4950067;28;20105;-71
2022/10/22 05:56:04;;;;;;;8.95;5.20;;;15.00;99.90;;;;;;4955017;28;20059;-72
2022/10/22 05:58:30;;;;;;;13.15;5.40;;;14.90;99.90;;;;;;4956877;28;21817;-72
2022/10/22 06:01:22;;;;;;;12.25;5.68;;;14.90;99.90;;;;;;4937867;28;20122;-72
2022/10/22 06:03:48;;;;;;;13.73;5.68;;;14.90;99.90;;;;;;4957069;28;20333;-72
2022/10/22 06:06:27;;;;;;;17.13;5.30;;;14.90;99.90;;;;;;4955790;28;20098;-72
2022/10/22 06:09:19;;;;;;;11.52;5.07;;;14.90;99.90;;;;;;4955485;28;20058;-73
2022/10/22 06:11:47;;;;;;;17.60;5.28;;;14.90;99.90;;;;;;4951684;28;20146;-72
2022/10/22 06:14:16;;;;;;;14.85;5.15;;;14.90;99.90;;;;;;4952874;28;20144;-71
2022/10/22 06:16:42;;;;;;;13.20;4.78;;;14.80;99.90;;;;;;4953278;28;20024;-72
2022/10/22 06:19:10;;;;;;;9.52;5.65;;;14.80;99.90;;;;;;4952536;28;20027;-73
2022/10/22 06:21:38;;;;;;;8.13;4.78;;;14.80;99.90;;;;;;4948807;29;20035;-72
2022/10/22 06:24:07;;;;;;;17.35;5.63;;;14.80;99.90;;;;;;4952362;28;20588;-72
2022/10/22 06:26:32;;;;;;;13.52;5.40;;;14.90;99.90;;;;;;4957539;28;20028;-72
2022/10/22 06:28:59;;;;;;;12.13;4.88;;;14.90;99.90;;;;;;4953102;28;20094;-73
2022/10/22 06:31:25;;;;;;;12.85;5.20;;;15.00;99.90;;;;;;4955828;28;20468;-70
2022/10/22 06:33:51;;;;;;;17.85;5.32;;;14.90;99.90;;;;;;4951900;28;20028;-72
2022/10/22 06:36:22;;;;;;;9.27;4.75;;;15.00;99.90;;;;;;4956295;28;20068;-73
2022/10/22 06:38:52;;;;;;;9.70;4.43;;;14.90;99.90;;;;;;4957877;28;20451;-72
2022/10/22 06:41:20;;;;;;;8.40;4.88;;;15.00;99.90;;;;;;4957191;28;20107;-73
2022/10/22 06:43:46;;;;;;;9.45;4.60;;;15.00;99.90;;;;;;4948906;28;20433;-72
2022/10/22 06:46:13;;;;;;;10.35;4.47;;;15.00;99.90;;;;;;4954995;28;20031;-72
2022/10/22 06:48:39;;;;;;;12.40;4.45;;;15.00;99.90;;;;;;4954225;28;20397;-73
2022/10/22 06:51:10;;;;;;;13.15;4.15;;;15.10;99.90;;;;;;4957575;28;20031;-73
2022/10/22 06:53:37;;;;;;;14.52;4.45;;;15.10;99.90;;;;;;4957277;28;20023;-72
2022/10/22 06:56:11;;;;;;;17.83;5.78;;;15.10;99.90;;;;;;4957613;28;20023;-82
2022/10/22 06:58:38;;;;;;;10.20;5.10;;;15.10;99.90;;;;;;4959693;28;20105;-82
2022/10/22 07:01:14;;;;;;;9.48;4.50;;;15.20;99.90;;;;;;4959821;28;20027;-82
2022/10/22 07:03:40;;;;;;;10.55;3.92;;;15.30;99.90;;;;;;4954511;28;20018;-81
2022/10/22 07:06:09;;;;;;;7.35;3.65;;;15.40;99.90;;;;;;4953848;28;20042;-83
2022/10/22 07:08:40;;;;;;;12.32;4.32;;;15.40;99.90;;;;;;4949694;28;20078;-82
2022/10/22 07:11:17;;;;;;;12.65;4.15;;;15.50;99.90;;;;;;4951480;28;20031;-81
2022/10/22 07:13:43;;;;;;;12.20;4.03;;;15.60;99.90;;;;;;4968460;28;20023;-80
2022/10/22 07:16:10;;;;;;;18.15;3.90;;;15.80;99.90;;;;;;4950699;28;20598;-81
2022/10/22 07:18:37;;;;;;;7.80;3.53;;;15.80;99.90;;;;;;4948849;28;20440;-80
2022/10/22 07:21:06;;;;;;;8.57;3.33;;;15.80;99.90;;;;;;4960904;28;20031;-76
2022/10/22 07:23:32;;;;;;;14.90;3.90;;;15.90;99.90;;;;;;4958141;28;20030;-78
2022/10/22 07:26:01;;;;;;;12.05;4.00;;;15.80;99.90;;;;;;4960616;28;20119;-80
2022/10/22 07:28:31;;;;;;;11.02;3.22;;;15.90;99.90;;;;;;4952923;28;20031;-77
2022/10/22 07:30:56;;;;;;;8.90;3.13;;;15.90;99.90;;;;;;4957819;28;20027;-74
2022/10/22 07:33:24;;;;;;;6.32;3.00;;;15.90;99.90;;;;;;4956158;28;20471;-77
2022/10/22 07:35:56;;;;;;;11.70;3.40;;;16.00;99.90;;;;;;4947502;28;20019;-79
2022/10/22 07:38:21;;;;;;;10.50;3.10;;;16.00;99.90;;;;;;4948091;28;20019;-78
2022/10/22 07:40:49;;;;;;;6.80;3.03;;;15.90;99.90;;;;;;4946909;28;20484;-79
2022/10/22 07:43:14;;;;;;;12.30;3.03;;;15.90;99.90;;;;;;4953676;28;20054;-77
2022/10/22 07:45:40;;;;;;;14.25;2.85;;;15.90;99.90;;;;;;4955463;28;20102;-78
2022/10/22 07:48:09;;;;;;;6.03;2.63;;;16.00;99.90;;;;;;4960754;28;20098;-81
2022/10/22 07:50:39;;;;;;;5.53;2.80;;;16.10;99.90;;;;;;4958096;28;20039;-79
2022/10/22 07:53:05;;;;;;;15.50;3.15;;;16.10;99.90;;;;;;4955547;28;20032;-83
2022/10/22 07:55:31;;;;;;;9.40;2.67;;;16.20;99.90;;;;;;4949412;28;20026;-83
2022/10/22 07:57:59;;;;;;;9.15;2.55;;;16.20;99.90;;;;;;4948621;28;20086;-80
2022/10/22 08:00:24;;;;;;;11.48;3.10;;;16.40;99.90;;;;;;4955419;28;20502;-82
2022/10/22 08:02:50;;;;;;;6.90;2.47;;;16.50;99.90;;;;;;4950465;28;20118;-81
2022/10/22 08:05:16;;;;;;;8.30;2.50;;;16.70;99.90;;;;;;4968290;28;20027;-78
2022/10/22 08:07:42;;;;;;;8.13;2.88;;;16.90;99.90;;;;;;4956475;28;20030;-80
2022/10/22 08:10:09;;;;;;;8.38;2.47;;;17.00;99.90;;;;;;4962575;28;20062;-77
2022/10/22 08:12:35;;;;;;;7.07;2.08;;;17.30;99.90;;;;;;4955749;28;20034;-77
2022/10/22 08:15:01;;;;;;;7.65;2.40;;;17.50;99.90;;;;;;4952872;28;20274;-83
2022/10/22 08:17:27;;;;;;;12.30;2.53;;;17.50;99.90;;;;;;4954962;28;20038;-80
2022/10/22 08:19:55;;;;;;;5.85;2.20;;;17.50;99.90;;;;;;4952127;28;20031;-77
2022/10/22 08:22:25;;;;;;;11.02;2.28;;;17.50;99.90;;;;;;4969754;28;20452;-81
2022/10/22 08:24:53;;;;;;;8.75;2.60;;;17.80;99.90;;;;;;4953607;28;20142;-79
2022/10/22 08:27:19;;;;;;;9.40;2.78;;;17.90;99.90;;;;;;4947120;28;20026;-79
2022/10/22 08:29:44;;;;;;;10.05;2.85;;;17.90;99.90;;;;;;4953059;28;20031;-79
2022/10/22 08:32:10;;;;;;;5.53;2.00;;;17.80;99.90;;;;;;4957075;28;20027;-81
2022/10/22 08:34:36;;;;;;;8.60;2.38;;;17.60;99.90;;;;;;4954628;28;20126;-83
2022/10/22 08:37:01;;;;;;;7.28;1.98;;;17.40;99.90;;;;;;4958613;28;20034;-80
2022/10/22 08:39:27;;;;;;;5.43;2.35;;;17.40;99.90;;;;;;4958222;28;20022;-80
2022/10/22 08:42:26;;;;;;;13.82;2.30;;;17.40;99.90;;;;;;4960861;28;20023;-78
2022/10/22 08:45:17;;;;;;;9.93;1.98;;;17.30;99.90;;;;;;4950272;28;20465;-83
2022/10/22 08:48:03;;;;;;;5.72;1.70;;;17.20;99.90;;;;;;4956294;28;20119;-77
2022/10/22 08:50:38;;;;;;;6.50;2.10;;;17.30;99.90;;;;;;4946264;28;20035;-81
2022/10/22 08:53:13;;;;;;;8.38;2.88;;;17.30;99.90;;;;;;4963699;28;20042;-80
2022/10/22 08:55:39;;;;;;;9.00;2.33;;;17.30;99.90;;;;;;4955402;28;20027;-81
2022/10/22 08:58:14;;;;;;;12.23;2.30;;;17.30;99.90;;;;;;4959036;28;20033;-81
2022/10/22 09:01:15;;;;;;;15.27;3.42;;;17.20;99.90;;;;;;4952136;28;20023;-78
2022/10/22 09:04:24;;;;;;;13.85;2.40;;;17.30;99.90;;;;;;4927935;28;20046;-80
2022/10/22 09:06:52;;;;;;;7.65;1.90;;;17.40;99.90;;;;;;4947751;28;20054;-77
2022/10/22 09:09:19;;;;;;;5.57;1.80;;;17.30;99.90;;;;;;4947781;28;20153;-82
2022/10/22 09:11:50;;;;;;;8.77;2.20;;;17.40;99.90;;;;;;4951635;28;20460;-75
2022/10/22 09:14:19;;;;;;;10.02;1.52;;;17.50;99.90;;;;;;4949963;28;20111;-74
2022/10/22 09:17:04;;;;;;;10.38;2.50;;;17.60;99.90;;;;;;4953653;28;20104;-77
2022/10/22 09:19:53;;;;;;;155.35;65.07;;;17.30;99.90;;;;;;4953147;28;20023;-76
2022/10/22 09:22:49;;;;;;;9.45;2.30;;;17.70;99.90;;;;;;4957176;28;20032;-81
2022/10/22 09:25:35;;;;;;;10.60;2.35;;;17.80;99.90;;;;;;4966561;28;20035;-79
2022/10/22 09:28:01;;;;;;;10.40;1.90;;;17.90;99.90;;;;;;4950295;28;20156;-79
2022/10/22 09:30:34;;;;;;;8.10;2.05;;;18.10;99.90;;;;;;4955105;28;20035;-78
2022/10/22 09:33:07;;;;;;;5.90;1.85;;;18.10;99.90;;;;;;4957684;28;20349;-84
2022/10/22 09:35:46;;;;;;;19.90;2.42;;;18.00;99.90;;;;;;4954478;28;20023;-77
2022/10/22 09:38:17;;;;;;;10.68;2.40;;;18.40;99.90;;;;;;4952337;28;20031;-80
2022/10/22 09:40:53;;;;;;;13.18;2.20;;;18.40;99.90;;;;;;4952987;28;20058;-79
2022/10/22 09:43:21;;;;;;;5.82;1.63;;;18.50;99.90;;;;;;4955746;28;20049;-76
2022/10/22 09:45:53;;;;;;;4.53;1.77;;;18.60;99.90;;;;;;4971304;28;20054;-82
2022/10/22 09:48:26;;;;;;;11.50;2.13;;;18.50;99.90;;;;;;4959665;28;20051;-77
2022/10/22 09:51:24;;;;;;;9.18;1.90;;;18.70;99.90;;;;;;4958334;28;20095;-78
2022/10/22 09:53:58;;;;;;;9.13;2.00;;;18.70;99.90;;;;;;4959681;28;20104;-79
2022/10/22 09:56:32;;;;;;;7.43;1.88;;;18.80;99.90;;;;;;4960024;28;20018;-86
2022/10/22 09:58:58;;;;;;;9.38;2.00;;;18.80;99.90;;;;;;4952820;28;20027;-78
2022/10/22 10:01:28;;;;;;;8.57;1.77;;;18.90;99.90;;;;;;4956302;28;20086;-80
2022/10/22 10:03:53;;;;;;;11.48;1.83;;;19.20;99.90;;;;;;4951541;28;20046;-80
2022/10/22 10:06:25;;;;;;;6.15;1.95;;;19.20;99.90;;;;;;4960548;28;20042;-79
2022/10/22 10:08:51;;;;;;;8.18;1.73;;;19.30;99.90;;;;;;4956684;28;20059;-77
2022/10/22 10:11:24;;;;;;;7.18;2.50;;;19.30;99.90;;;;;;4959022;28;20031;-86
2022/10/22 10:14:12;;;;;;;2.78;1.45;;;19.10;99.90;;;;;;4955832;28;20051;-76
2022/10/22 10:16:49;;;;;;;15.15;2.03;;;18.80;99.90;;;;;;4956039;28;20023;-81
2022/10/22 10:19:45;;;;;;;5.00;1.70;;;18.70;99.90;;;;;;4957223;28;20031;-85
2022/10/22 10:22:32;;;;;;;9.48;1.58;;;18.40;99.90;;;;;;4960068;28;20034;-84
2022/10/22 10:25:19;;;;;;;10.40;2.53;;;18.40;99.90;;;;;;4954523;28;20036;-77
2022/10/22 10:27:54;;;;;;;7.75;1.70;;;18.30;99.90;;;;;;4952031;28;20031;-79
2022/10/22 10:30:24;;;;;;;205.93;86.90;;;18.30;99.90;;;;;;4956071;28;20041;-76
2022/10/22 10:33:21;;;;;;;12.48;1.75;;;18.20;99.90;;;;;;4957742;28;20138;-81
2022/10/22 10:36:13;;;;;;;7.82;1.85;;;18.10;99.90;;;;;;4957143;28;20523;-75
2022/10/22 10:39:15;;;;;;;6.47;1.52;;;18.00;99.90;;;;;;4955766;28;20114;-75
2022/10/22 10:41:54;;;;;;;9.80;1.70;;;17.90;99.90;;;;;;4950534;28;20046;-76
2022/10/22 10:44:38;;;;;;;9.77;1.80;;;17.90;99.90;;;;;;4958197;28;20023;-79
2022/10/22 10:47:34;;;;;;;9.63;1.80;;;17.80;99.90;;;;;;4954853;28;20121;-79
2022/10/22 10:50:32;;;;;;;8.00;1.70;;;17.90;99.90;;;;;;4951116;28;20664;-80
2022/10/22 10:53:21;;;;;;;9.05;1.67;;;17.90;99.90;;;;;;4950895;28;20038;-82
2022/10/22 10:56:11;;;;;;;10.85;1.80;;;17.90;99.90;;;;;;4952418;28;20068;-78
2022/10/22 10:58:42;;;;;;;5.88;1.67;;;18.10;99.90;;;;;;4953437;28;20019;-79
2022/10/22 11:01:32;;;;;;;5.85;1.83;;;17.90;99.90;;;;;;4952260;28;20573;-80
2022/10/22 11:04:16;;;;;;;7.93;2.10;;;17.90;99.90;;;;;;4957186;28;20042;-76
2022/10/22 11:06:43;;;;;;;11.98;1.92;;;18.00;99.90;;;;;;4954068;28;20028;-82
2022/10/22 11:09:52;;;;;;;49.00;19.10;;;18.00;99.90;;;;;;4956222;28;20043;-75
2022/10/22 11:12:23;;;;;;;8.77;2.03;;;18.10;99.90;;;;;;4952881;28;20489;-78
2022/10/22 11:14:59;;;;;;;5.38;1.52;;;18.20;99.90;;;;;;4950742;28;20031;-75
2022/10/22 11:17:34;;;;;;;6.75;1.73;;;18.20;99.90;;;;;;4952220;28;20135;-78
2022/10/22 11:20:23;;;;;;;17.13;2.40;;;18.10;99.90;;;;;;4951803;28;20054;-79
2022/10/22 11:23:01;;;;;;;8.43;1.83;;;18.10;99.90;;;;;;4955471;28;20050;-72
2022/10/22 11:25:33;;;;;;;4.03;1.40;;;18.20;99.90;;;;;;4954208;28;20350;-80
2022/10/22 11:28:07;;;;;;;6.30;2.20;;;18.10;99.90;;;;;;4951629;28;20065;-82
2022/10/22 11:30:35;;;;;;;11.27;1.65;;;18.10;99.90;;;;;;4953188;28;20112;-79
2022/10/22 11:33:06;;;;;;;6.30;2.00;;;18.10;99.90;;;;;;4956922;28;20122;-76
2022/10/22 11:35:39;;;;;;;9.25;1.75;;;18.30;99.90;;;;;;4952815;28;20114;-77
2022/10/22 11:38:08;;;;;;;9.88;1.95;;;18.30;99.90;;;;;;4956062;28;20335;-83
2022/10/22 11:40:43;;;;;;;12.52;2.05;;;18.30;99.90;;;;;;4952790;28;20062;-81
2022/10/22 11:43:19;;;;;;;9.52;1.98;;;18.50;99.90;;;;;;4954244;28;20031;-79
2022/10/22 11:45:55;;;;;;;7.75;1.67;;;18.60;99.90;;;;;;4951184;28;20027;-77
2022/10/22 11:48:26;;;;;;;13.45;5.43;;;18.70;99.90;;;;;;4950167;28;20046;-72
2022/10/22 11:50:59;;;;;;;8.80;3.30;;;18.70;99.90;;;;;;4954843;28;20027;-82
2022/10/22 11:53:24;;;;;;;8.90;2.03;;;18.50;99.90;;;;;;4952929;28;20628;-77
2022/10/22 11:56:02;;;;;;;10.05;2.10;;;18.60;99.90;;;;;;4960213;28;20027;-79
2022/10/22 11:58:31;;;;;;;6.93;1.80;;;18.50;99.90;;;;;;4943269;28;20031;-72
2022/10/22 12:01:07;;;;;;;10.57;2.42;;;18.70;99.90;;;;;;4950984;28;20031;-78
2022/10/22 12:03:39;;;;;;;12.02;2.20;;;18.90;99.90;;;;;;4947595;28;20034;-79
2022/10/22 12:06:11;;;;;;;12.30;1.80;;;19.40;99.90;;;;;;4946563;28;20022;-79
2022/10/22 12:08:51;;;;;;;9.75;1.55;;;19.70;99.90;;;;;;4949657;28;20142;-78
2022/10/22 12:11:49;;;;;;;5.30;1.85;;;20.10;99.90;;;;;;4950173;28;20035;-83
2022/10/22 12:14:28;;;;;;;8.25;1.98;;;20.30;99.90;;;;;;4966086;28;20356;-75
2022/10/22 12:17:11;;;;;;;7.07;1.83;;;20.50;99.90;;;;;;4948778;28;20031;-74
2022/10/22 12:19:52;;;;;;;6.93;1.67;;;20.80;99.90;;;;;;4949750;28;20122;-75
2022/10/22 12:22:21;;;;;;;10.90;1.85;;;21.10;99.90;;;;;;4956216;28;20023;-75
2022/10/22 12:24:53;;;;;;;6.35;2.20;;;21.60;99.90;;;;;;4955024;28;20061;-78
2022/10/22 12:27:22;;;;;;;7.00;1.65;;;22.20;99.90;;;;;;4954887;28;20421;-80
2022/10/22 12:29:58;;;;;;;327.63;131.30;;;22.00;99.90;;;;;;4953375;28;20775;-74
2022/10/22 12:32:35;;;;;;;9.35;1.80;;;22.20;99.90;;;;;;4953234;28;20747;-79
2022/10/22 12:35:08;;;;;;;6.13;1.92;;;21.80;99.90;;;;;;4951874;28;20046;-78
2022/10/22 12:37:38;;;;;;;6.30;1.77;;;21.70;99.90;;;;;;4953351;28;20436;-77
2022/10/22 12:40:35;;;;;;;6.18;1.73;;;22.00;99.90;;;;;;4949928;28;20038;-74
2022/10/22 12:43:10;;;;;;;9.35;1.75;;;22.70;99.90;;;;;;4950119;28;20039;-77
2022/10/22 12:45:37;;;;;;;8.43;1.73;;;23.70;99.90;;;;;;4956435;28;20079;-74
2022/10/22 12:48:39;;;;;;;4.80;2.08;;;24.00;98.50;;;;;;4954213;28;20035;-77
2022/10/22 12:51:09;;;;;;;3.83;1.70;;;23.90;97.70;;;;;;4956880;28;20035;-77
2022/10/22 12:53:38;;;;;;;24.73;11.30;;;23.40;97.90;;;;;;4951553;28;20047;-74
2022/10/22 12:56:14;;;;;;;6.43;1.83;;;22.40;99.90;;;;;;4956015;28;20032;-73
2022/10/22 12:58:59;;;;;;;4.03;2.00;;;21.90;99.90;;;;;;4970257;28;20051;-78
2022/10/22 13:01:27;;;;;;;6.03;1.98;;;21.40;99.90;;;;;;4951173;28;20361;-76
2022/10/22 13:04:11;;;;;;;10.45;1.95;;;20.80;99.90;;;;;;4952044;28;20114;-77
2022/10/22 13:06:43;;;;;;;3.30;1.90;;;20.20;99.90;;;;;;4949932;28;20036;-81